Aérodrome :
LOGIN :

S'inscrire | Disclaimer

   EN    FR    IT 

 










Légende :    VFR   VFR Marginal   IFR   IFR Intensif   IFR Très Intensif
Visi : 
Plafond : 
>= 8 km
>= 3000ft
5 à 8 km
1000 à 3000 ft
1500m à 5 km
500 à 1000 ft
800 à 1500m
200 à 500 ft
< 800m
< 200 ft
Symboles :   Orages  Brouillard  Fortes neiges  Fortes précipitations  Vent > 20 kt
SIGMETs :   Divers  Orages  Givrage  Turbulence  Onde Orograph.  Cendres Volcan.







- Altitude de l'aérodrome : 147 ft
- Code IATA : DUS


EDDL - Düsseldorf Int.

DERNIER METAR :
  • 201150Z VRB05KT 9999 FEW048 24/11 Q1021 NOSIG

METARs EXPIRÉS :
  • 201120Z 07008KT 010V120 9999 FEW046 22/11 Q1021 NOSIG
  • 201050Z 02006KT 310V100 9999 FEW044 22/11 Q1022 NOSIG
  • 201020Z 04007KT 340V120 9999 FEW040 22/10 Q1022 NOSIG
  • 200950Z 05007KT 010V090 CAVOK 21/10 Q1022 NOSIG
  • 200920Z 04009KT 020V080 CAVOK 20/10 Q1022 NOSIG

TAF TAF EDDL
Valide du 20 à 12h jusqu'au 21 à 18h UTC


201100Z 2012/2118 06010KT CAVOK
BECMG 2017/2019 05005KT
BECMG 2106/2108 08010KT
Pas de NOTAMs connus pour ce terrain.



MET'MAP, la Météo Aéronautique d'un coup d'oeil ! - Copyright ORBIFLY Décembre 2007 - Disclaimer

ORBIFLY MET'MAP TEAM :

Programmation & Développement : Alexandra Zaïnal
Conception & Développement : Baudouin d'Aumeries
Co-Programmation & Développement : Marc-Olivier Méhu
Soutien technique & logistique : Manuel Goepfert

Contact : metmap@orbifly.com




SOURCES & CREDITS :

   NOAA